Time;durP1;ratioP1;P1;durP2;ratioP2;P2;SDS_P1;SDS_P2;PMS_P1;PMS_P2;Temp;Humidity;BMP_temperature;BMP_pressure;BME280_temperature;BME280_humidity;BME280_pressure;Samples;Min_cycle;Max_cycle;Signal;HPM_P1;HPM_P2
2020/12/25 00:02:21;;;;;;;11.98;7.10;;;3.80;97.10;;;;;;5012129;28;20036;-78
2020/12/25 00:04:46;;;;;;;10.27;7.05;;;3.80;97.10;;;;;;5033934;28;20035;-79
2020/12/25 00:07:12;;;;;;;9.95;6.28;;;3.80;97.20;;;;;;5027396;28;20550;-77
2020/12/25 00:09:37;;;;;;;14.13;6.72;;;3.70;97.10;;;;;;5023488;28;20530;-78
2020/12/25 00:12:06;;;;;;;12.65;6.07;;;3.70;97.10;;;;;;5021929;28;20047;-77
2020/12/25 00:14:31;;;;;;;9.35;5.35;;;3.70;97.00;;;;;;5047202;28;20028;-79
2020/12/25 00:17:00;;;;;;;7.70;5.53;;;3.70;97.00;;;;;;5027173;28;20036;-78
2020/12/25 00:19:26;;;;;;;9.60;6.15;;;3.70;97.00;;;;;;5014924;28;20127;-78
2020/12/25 00:21:51;;;;;;;10.60;4.90;;;3.60;97.00;;;;;;5038949;28;20029;-77
2020/12/25 00:24:17;;;;;;;10.48;6.22;;;3.60;97.00;;;;;;5025479;28;20030;-78
2020/12/25 00:26:42;;;;;;;15.15;5.53;;;3.60;96.80;;;;;;5004949;28;20033;-78
2020/12/25 00:29:08;;;;;;;12.45;7.45;;;3.60;96.80;;;;;;5015373;28;20447;-78
2020/12/25 00:31:35;;;;;;;8.48;5.90;;;3.50;96.80;;;;;;5016698;28;20556;-77
2020/12/25 00:34:02;;;;;;;11.88;7.90;;;3.50;96.90;;;;;;5021720;28;20032;-78
2020/12/25 00:36:29;;;;;;;12.05;6.03;;;3.50;96.90;;;;;;5029748;28;20033;-77
2020/12/25 00:38:55;;;;;;;11.13;6.50;;;3.50;97.00;;;;;;5031878;28;20028;-77
2020/12/25 00:41:20;;;;;;;11.73;6.15;;;3.50;97.00;;;;;;5013144;28;20102;-77
2020/12/25 00:43:46;;;;;;;12.07;6.80;;;3.50;96.90;;;;;;5021188;28;20094;-78
2020/12/25 00:46:12;;;;;;;8.98;4.82;;;3.40;96.90;;;;;;5016981;28;20047;-78
2020/12/25 00:48:37;;;;;;;10.93;5.82;;;3.40;96.90;;;;;;5021145;28;20093;-77
2020/12/25 00:51:03;;;;;;;9.82;6.20;;;3.40;96.90;;;;;;5029140;28;20025;-77
2020/12/25 00:53:29;;;;;;;10.70;6.40;;;3.40;96.80;;;;;;5016799;28;20088;-78
2020/12/25 00:55:54;;;;;;;10.63;5.88;;;3.40;96.80;;;;;;5025781;28;20484;-78
2020/12/25 00:58:20;;;;;;;8.70;5.80;;;3.30;96.70;;;;;;5022167;28;20040;-78
2020/12/25 01:00:45;;;;;;;8.45;4.50;;;3.30;96.80;;;;;;5030502;28;20142;-77
2020/12/25 01:03:11;;;;;;;11.02;5.60;;;3.20;96.80;;;;;;5021873;28;20484;-78
2020/12/25 01:05:36;;;;;;;10.75;5.10;;;3.20;96.70;;;;;;5020806;28;20495;-76
2020/12/25 01:08:02;;;;;;;7.35;5.25;;;3.20;96.80;;;;;;5055810;28;20025;-78
2020/12/25 01:10:28;;;;;;;12.25;4.90;;;3.20;96.60;;;;;;5049055;28;20116;-77
2020/12/25 01:12:53;;;;;;;13.50;4.97;;;3.20;96.70;;;;;;5040172;28;20020;-78
2020/12/25 01:15:19;;;;;;;11.30;4.32;;;3.10;96.50;;;;;;5017830;28;20489;-77
2020/12/25 01:17:44;;;;;;;13.13;4.78;;;3.10;96.50;;;;;;5042183;28;20024;-77
2020/12/25 01:20:10;;;;;;;13.15;5.00;;;3.10;96.50;;;;;;5051933;28;20040;-78
2020/12/25 01:22:35;;;;;;;8.45;4.80;;;3.00;96.60;;;;;;5034714;28;20033;-77
2020/12/25 01:25:01;;;;;;;6.03;3.97;;;2.90;96.60;;;;;;5017489;28;20090;-78
2020/12/25 01:27:26;;;;;;;9.55;4.85;;;2.90;96.60;;;;;;5016029;28;20438;-78
2020/12/25 01:29:52;;;;;;;8.45;4.70;;;2.90;96.50;;;;;;5043042;28;20032;-77
2020/12/25 01:32:17;;;;;;;5.75;3.70;;;3.00;96.90;;;;;;5026921;28;20036;-77
2020/12/25 01:34:43;;;;;;;7.57;4.38;;;2.90;96.40;;;;;;5030507;28;20032;-77
2020/12/25 01:37:08;;;;;;;7.65;4.20;;;2.80;96.40;;;;;;5029414;28;20108;-78
2020/12/25 01:39:34;;;;;;;11.27;4.80;;;2.80;96.50;;;;;;5032592;28;20024;-77
2020/12/25 01:41:59;;;;;;;10.75;4.75;;;2.80;96.80;;;;;;5031068;28;20039;-77
2020/12/25 01:44:25;;;;;;;9.20;4.07;;;2.80;96.60;;;;;;5017347;28;20033;-78
2020/12/25 01:46:51;;;;;;;9.38;3.58;;;2.80;96.40;;;;;;5040180;28;20069;-78
2020/12/25 01:49:16;;;;;;;8.75;3.78;;;2.70;96.50;;;;;;5012029;28;20036;-78
2020/12/25 01:51:42;;;;;;;7.78;3.60;;;2.80;96.50;;;;;;5027810;28;20050;-77
2020/12/25 01:54:07;;;;;;;7.85;3.35;;;2.70;96.40;;;;;;5032429;28;20060;-78
2020/12/25 01:56:33;;;;;;;6.68;3.08;;;2.70;96.50;;;;;;5011561;28;20531;-78
2020/12/25 01:58:58;;;;;;;5.00;3.40;;;2.70;96.40;;;;;;5021231;28;20032;-79
2020/12/25 02:01:24;;;;;;;7.82;2.78;;;2.70;96.40;;;;;;5030162;28;20101;-78
2020/12/25 02:03:50;;;;;;;9.35;3.40;;;2.70;96.50;;;;;;5014471;28;20036;-80
2020/12/25 02:06:15;;;;;;;9.65;3.60;;;2.70;96.40;;;;;;5027436;28;20028;-78
2020/12/25 02:08:41;;;;;;;7.47;3.42;;;2.70;96.50;;;;;;5016047;28;20108;-79
2020/12/25 02:11:06;;;;;;;12.05;3.40;;;2.70;96.40;;;;;;5028232;28;20040;-79
2020/12/25 02:13:33;;;;;;;9.57;3.33;;;2.70;96.50;;;;;;5009257;28;20029;-78
2020/12/25 02:15:59;;;;;;;8.38;2.90;;;2.60;96.50;;;;;;5034240;28;20051;-77
2020/12/25 02:18:32;;;;;;;13.50;3.35;;;2.60;96.60;;;;;;5016464;28;20504;-77
2020/12/25 02:21:01;;;;;;;8.43;4.07;;;2.60;96.60;;;;;;5022622;28;20404;-77
2020/12/25 02:23:27;;;;;;;7.88;2.80;;;2.70;96.60;;;;;;5015072;28;20032;-79
2020/12/25 02:25:52;;;;;;;13.80;3.65;;;2.70;96.50;;;;;;5041745;28;20024;-78
2020/12/25 02:28:18;;;;;;;13.32;3.08;;;2.70;96.50;;;;;;5036595;28;20100;-76
2020/12/25 02:30:43;;;;;;;10.15;3.15;;;2.70;96.50;;;;;;5022439;28;20473;-77
2020/12/25 02:33:09;;;;;;;10.60;2.60;;;2.70;96.60;;;;;;5039486;28;20560;-77
2020/12/25 02:35:34;;;;;;;9.52;2.60;;;2.70;96.60;;;;;;5035491;28;20073;-78
2020/12/25 02:38:00;;;;;;;7.10;2.15;;;2.70;96.50;;;;;;5017987;28;20078;-77
2020/12/25 02:40:25;;;;;;;7.10;2.72;;;2.70;96.50;;;;;;5026048;28;20095;-78
2020/12/25 02:42:51;;;;;;;8.70;2.83;;;2.60;96.50;;;;;;5017436;28;20498;-78
2020/12/25 02:45:16;;;;;;;5.75;2.38;;;2.60;96.50;;;;;;5018510;28;20024;-78
2020/12/25 02:47:42;;;;;;;9.13;2.80;;;2.60;96.60;;;;;;5038958;28;20017;-79
2020/12/25 02:50:08;;;;;;;5.68;1.98;;;2.60;96.50;;;;;;5027849;28;20365;-78
2020/12/25 02:52:33;;;;;;;12.07;2.70;;;2.50;96.50;;;;;;5016014;28;20396;-77
2020/12/25 02:54:59;;;;;;;10.75;2.88;;;2.50;96.40;;;;;;5015818;28;20043;-78
2020/12/25 02:57:24;;;;;;;10.75;2.60;;;2.50;96.40;;;;;;5012979;28;20025;-79
2020/12/25 02:59:50;;;;;;;4.25;1.90;;;2.40;96.40;;;;;;5017698;28;20087;-78
2020/12/25 03:02:16;;;;;;;8.00;2.10;;;2.50;96.50;;;;;;5020029;28;20036;-77
2020/12/25 03:04:43;;;;;;;2.85;1.58;;;2.40;96.30;;;;;;5009460;28;20121;-77
2020/12/25 03:07:10;;;;;;;10.30;2.00;;;2.40;96.40;;;;;;5050907;28;20041;-78
2020/12/25 03:09:35;;;;;;;9.30;1.73;;;2.30;96.20;;;;;;5027373;28;20113;-77
2020/12/25 03:12:01;;;;;;;9.35;1.98;;;2.30;96.00;;;;;;5013811;28;20035;-78
2020/12/25 03:14:26;;;;;;;8.63;1.60;;;2.20;96.10;;;;;;5031629;28;20025;-77
2020/12/25 03:16:52;;;;;;;7.30;1.75;;;2.20;96.10;;;;;;5030913;28;20028;-78
2020/12/25 03:19:17;;;;;;;10.85;1.40;;;2.10;96.00;;;;;;5035495;28;20048;-78
2020/12/25 03:21:43;;;;;;;6.32;1.35;;;2.10;95.90;;;;;;5024961;28;20325;-78
2020/12/25 03:24:09;;;;;;;5.40;1.10;;;2.00;95.90;;;;;;5042341;28;20108;-83
2020/12/25 03:26:35;;;;;;;9.75;1.38;;;1.90;95.90;;;;;;5013969;28;20131;-81
2020/12/25 03:29:00;;;;;;;14.60;1.55;;;1.80;95.80;;;;;;5031040;28;20059;-83
2020/12/25 03:31:26;;;;;;;8.38;1.60;;;1.80;95.90;;;;;;5012432;28;20048;-83
2020/12/25 03:33:51;;;;;;;5.18;1.45;;;1.70;95.80;;;;;;5011269;28;20036;-83
2020/12/25 03:36:17;;;;;;;9.63;1.55;;;1.70;95.90;;;;;;5022388;28;20040;-83
2020/12/25 03:38:42;;;;;;;12.88;1.55;;;1.60;95.80;;;;;;5033765;28;20029;-83
2020/12/25 03:41:08;;;;;;;8.75;1.42;;;1.70;95.80;;;;;;5035932;28;20029;-83
2020/12/25 03:43:33;;;;;;;8.50;1.40;;;1.60;95.80;;;;;;5023511;28;20071;-78
2020/12/25 03:45:59;;;;;;;7.97;1.25;;;1.60;95.70;;;;;;5011228;28;20119;-78
2020/12/25 03:48:25;;;;;;;4.80;1.25;;;1.50;95.50;;;;;;5023867;28;20060;-78
2020/12/25 03:50:50;;;;;;;14.07;2.17;;;1.40;95.60;;;;;;5014035;28;20482;-78
2020/12/25 03:53:16;;;;;;;7.82;1.60;;;1.40;95.60;;;;;;5023597;28;20048;-79
2020/12/25 03:55:41;;;;;;;13.25;2.10;;;1.40;95.70;;;;;;5025837;28;20484;-78
2020/12/25 03:58:07;;;;;;;9.43;2.03;;;1.30;95.60;;;;;;5019343;28;20059;-78
2020/12/25 04:00:33;;;;;;;7.88;1.95;;;1.30;95.50;;;;;;5017026;28;20095;-79
2020/12/25 04:02:58;;;;;;;10.98;2.20;;;1.20;95.40;;;;;;5026967;28;20016;-79
2020/12/25 04:05:24;;;;;;;14.73;2.38;;;1.20;95.50;;;;;;5012768;28;20498;-78
2020/12/25 04:07:49;;;;;;;6.03;2.35;;;1.20;95.60;;;;;;5015716;28;20074;-78
2020/12/25 04:10:15;;;;;;;7.47;2.13;;;1.10;95.60;;;;;;5023364;28;20119;-78
2020/12/25 04:12:40;;;;;;;8.77;2.13;;;1.10;95.40;;;;;;5026115;28;20101;-78
2020/12/25 04:15:06;;;;;;;7.00;2.10;;;1.00;95.40;;;;;;5022758;28;20529;-78
2020/12/25 04:17:31;;;;;;;8.90;2.50;;;1.00;95.40;;;;;;5012029;28;20017;-77
2020/12/25 04:19:57;;;;;;;6.78;2.65;;;0.90;95.50;;;;;;5006362;28;20028;-77
2020/12/25 04:22:22;;;;;;;12.73;3.42;;;0.80;95.50;;;;;;5034026;28;20084;-77
2020/12/25 04:24:48;;;;;;;7.60;2.30;;;0.90;95.80;;;;;;5052197;28;20028;-77
2020/12/25 04:27:13;;;;;;;19.33;2.83;;;0.90;95.60;;;;;;5019801;28;20032;-78
2020/12/25 04:29:39;;;;;;;11.25;3.58;;;1.00;95.90;;;;;;5028826;28;20037;-77
2020/12/25 04:32:04;;;;;;;9.45;2.45;;;0.90;95.30;;;;;;5024942;28;20035;-78
2020/12/25 04:34:30;;;;;;;8.75;2.50;;;0.80;95.30;;;;;;5011021;28;20029;-78
2020/12/25 04:36:55;;;;;;;9.43;2.67;;;0.80;95.60;;;;;;5014275;28;20029;-78
2020/12/25 04:39:21;;;;;;;12.48;2.58;;;0.70;95.20;;;;;;5024887;28;20036;-79
2020/12/25 04:41:46;;;;;;;12.95;2.50;;;0.70;95.40;;;;;;5012689;28;20040;-78
2020/12/25 04:44:12;;;;;;;13.95;3.45;;;0.60;95.20;;;;;;5028040;28;20052;-77
2020/12/25 04:46:38;;;;;;;5.47;2.15;;;0.60;95.20;;;;;;5041825;28;20024;-77
2020/12/25 04:49:03;;;;;;;8.55;2.85;;;0.60;95.70;;;;;;5015316;28;20052;-78
2020/12/25 04:51:29;;;;;;;8.32;2.28;;;0.70;95.40;;;;;;5019618;28;20033;-78
2020/12/25 04:53:54;;;;;;;7.38;2.33;;;0.60;95.40;;;;;;5007881;28;20036;-78
2020/12/25 04:56:21;;;;;;;9.85;2.88;;;0.60;95.40;;;;;;5018891;28;20147;-78
2020/12/25 04:58:47;;;;;;;11.15;3.88;;;0.60;95.60;;;;;;5038667;28;20089;-79
2020/12/25 05:01:12;;;;;;;12.32;3.97;;;0.50;95.10;;;;;;5029911;28;20036;-78
2020/12/25 05:03:39;;;;;;;11.05;4.40;;;0.40;95.30;;;;;;5036306;28;20033;-78
2020/12/25 05:06:12;;;;;;;16.08;5.53;;;0.40;95.20;;;;;;5023702;28;20087;-79
2020/12/25 05:08:44;;;;;;;18.02;5.65;;;0.40;95.60;;;;;;5048561;28;20032;-79
2020/12/25 05:11:12;;;;;;;13.75;6.47;;;0.30;95.30;;;;;;5016215;28;20037;-79
2020/12/25 05:13:51;;;;;;;18.73;5.88;;;0.20;95.20;;;;;;5016204;28;20111;-79
2020/12/25 05:16:17;;;;;;;14.05;4.18;;;0.20;95.50;;;;;;5045627;28;20044;-80
2020/12/25 05:18:44;;;;;;;9.85;4.05;;;0.30;95.70;;;;;;5034567;28;20094;-79
2020/12/25 05:21:10;;;;;;;17.65;4.32;;;0.30;95.60;;;;;;5025112;28;20032;-79
2020/12/25 05:23:38;;;;;;;22.50;4.43;;;0.30;95.20;;;;;;5032279;28;20416;-79
2020/12/25 05:26:05;;;;;;;15.18;3.90;;;0.20;95.20;;;;;;5025352;28;20391;-80
2020/12/25 05:28:30;;;;;;;13.82;4.28;;;0.20;95.40;;;;;;5010714;28;20028;-79
2020/12/25 05:30:57;;;;;;;12.30;3.55;;;0.20;95.50;;;;;;5027282;28;20036;-79
2020/12/25 05:33:23;;;;;;;10.85;3.30;;;0.20;95.80;;;;;;5020355;28;20404;-80
2020/12/25 05:35:54;;;;;;;16.58;3.97;;;0.40;96.00;;;;;;5038848;28;20035;-80
2020/12/25 05:38:21;;;;;;;13.88;3.88;;;0.30;95.60;;;;;;5012221;28;20430;-80
2020/12/25 05:40:47;;;;;;;12.25;4.28;;;0.50;96.20;;;;;;5019589;28;20024;-79
2020/12/25 05:43:13;;;;;;;10.55;3.30;;;0.70;96.20;;;;;;5007877;28;20035;-80
2020/12/25 05:45:39;;;;;;;10.65;5.05;;;0.70;96.10;;;;;;5019028;28;20116;-80
2020/12/25 05:48:05;;;;;;;12.73;4.03;;;0.80;96.00;;;;;;5030567;28;20112;-80
2020/12/25 05:50:30;;;;;;;12.63;3.90;;;0.70;95.80;;;;;;5024914;28;20683;-80
2020/12/25 05:52:56;;;;;;;12.95;4.65;;;0.70;95.80;;;;;;5029974;28;20056;-79
2020/12/25 05:55:22;;;;;;;15.57;4.90;;;0.60;95.90;;;;;;5031521;28;20025;-79
2020/12/25 05:57:51;;;;;;;18.02;4.57;;;0.60;95.90;;;;;;5010943;28;20032;-78
2020/12/25 06:00:20;;;;;;;10.85;3.55;;;0.70;96.10;;;;;;5028380;28;20104;-79
2020/12/25 06:02:47;;;;;;;12.85;4.25;;;0.70;96.00;;;;;;5023972;28;20440;-79
2020/12/25 06:05:13;;;;;;;6.68;3.28;;;0.70;96.00;;;;;;5021261;28;20086;-78
2020/12/25 06:07:38;;;;;;;14.00;3.60;;;0.60;95.60;;;;;;5008510;28;20029;-79
2020/12/25 06:10:04;;;;;;;12.90;4.28;;;0.60;96.00;;;;;;5031484;28;20124;-79
2020/12/25 06:12:38;;;;;;;6.55;3.30;;;0.70;95.90;;;;;;5017163;28;20099;-79
2020/12/25 06:15:05;;;;;;;10.95;3.83;;;0.70;96.00;;;;;;5036093;28;20790;-79
2020/12/25 06:17:31;;;;;;;11.98;3.80;;;0.70;95.70;;;;;;5032853;28;20028;-80
2020/12/25 06:20:05;;;;;;;10.02;4.10;;;0.50;95.50;;;;;;5014423;28;20553;-79
2020/12/25 06:22:33;;;;;;;10.60;3.72;;;0.40;95.90;;;;;;5052206;28;20550;-80
2020/12/25 06:25:00;;;;;;;7.75;3.08;;;0.50;96.20;;;;;;5021650;28;20488;-80
2020/12/25 06:27:26;;;;;;;13.05;4.10;;;0.70;96.30;;;;;;5025883;28;20041;-81
2020/12/25 06:29:54;;;;;;;7.55;2.17;;;0.80;96.00;;;;;;5023707;28;20028;-80
2020/12/25 06:32:20;;;;;;;8.55;3.17;;;0.80;96.10;;;;;;5025771;28;20028;-80
2020/12/25 06:34:47;;;;;;;9.07;3.00;;;0.80;96.10;;;;;;5027003;28;20467;-81
2020/12/25 06:37:16;;;;;;;9.68;2.65;;;0.80;96.00;;;;;;5026308;28;20024;-80
2020/12/25 06:39:51;;;;;;;10.98;3.13;;;0.80;96.20;;;;;;5019086;28;20638;-80
2020/12/25 06:42:32;;;;;;;8.52;3.10;;;0.90;96.00;;;;;;5025882;28;20039;-81
2020/12/25 06:44:57;;;;;;;14.70;2.75;;;0.70;95.60;;;;;;5023022;28;20039;-81
2020/12/25 06:47:37;;;;;;;12.25;2.88;;;0.80;96.20;;;;;;5017382;28;20028;-81
2020/12/25 06:50:12;;;;;;;6.22;3.58;;;0.80;96.20;;;;;;5013841;28;20051;-81
2020/12/25 06:52:54;;;;;;;7.45;3.03;;;0.90;96.40;;;;;;5020845;28;20426;-80
2020/12/25 06:55:45;;;;;;;7.25;2.65;;;1.00;96.40;;;;;;5035417;28;20040;-80
2020/12/25 06:58:11;;;;;;;11.60;3.60;;;1.10;96.20;;;;;;5051845;28;20085;-81
2020/12/25 07:00:40;;;;;;;7.22;2.50;;;1.10;96.10;;;;;;5014354;28;20426;-80
2020/12/25 07:03:12;;;;;;;14.18;3.00;;;1.20;96.20;;;;;;5029455;28;20025;-80
2020/12/25 07:05:47;;;;;;;8.80;2.63;;;1.20;96.00;;;;;;5017440;28;20028;-80
2020/12/25 07:08:26;;;;;;;6.53;2.83;;;1.30;95.90;;;;;;5027468;28;20123;-81
2020/12/25 07:10:59;;;;;;;9.48;3.28;;;1.40;95.90;;;;;;5026091;28;20083;-81
2020/12/25 07:13:24;;;;;;;6.93;2.83;;;1.40;95.70;;;;;;5025791;28;20745;-80
2020/12/25 07:15:50;;;;;;;8.30;3.22;;;1.20;95.60;;;;;;5012904;28;20040;-80
2020/12/25 07:18:18;;;;;;;5.40;2.72;;;1.10;95.80;;;;;;5014885;28;20395;-80
2020/12/25 07:20:44;;;;;;;9.55;2.90;;;1.10;96.20;;;;;;5003029;28;20059;-80
2020/12/25 07:23:09;;;;;;;11.55;2.95;;;1.10;96.10;;;;;;5028971;28;20044;-80
2020/12/25 07:25:41;;;;;;;13.52;3.03;;;1.10;96.20;;;;;;5021989;28;20430;-79
2020/12/25 07:28:07;;;;;;;7.75;2.35;;;1.20;96.30;;;;;;5035550;28;20036;-80
2020/12/25 07:30:33;;;;;;;8.23;2.35;;;1.20;96.40;;;;;;5035006;28;20024;-80
2020/12/25 07:32:58;;;;;;;16.25;3.38;;;1.20;96.20;;;;;;5017309;28;20020;-80
2020/12/25 07:35:24;;;;;;;11.52;3.00;;;1.20;96.30;;;;;;5044779;28;20041;-79
2020/12/25 07:37:55;;;;;;;6.50;2.25;;;1.20;96.30;;;;;;5034616;28;20021;-81
2020/12/25 07:40:21;;;;;;;5.72;3.03;;;1.30;96.40;;;;;;5036419;28;20050;-81
2020/12/25 07:42:47;;;;;;;6.93;2.33;;;1.30;96.20;;;;;;5038028;28;20024;-80
2020/12/25 07:45:12;;;;;;;9.43;2.75;;;1.30;96.20;;;;;;5028936;28;20032;-81
2020/12/25 07:47:40;;;;;;;6.82;2.50;;;1.10;96.10;;;;;;5035499;28;20433;-81
2020/12/25 07:50:06;;;;;;;5.28;1.90;;;1.20;96.30;;;;;;5046242;28;20371;-81
2020/12/25 07:52:32;;;;;;;11.20;2.47;;;1.20;96.30;;;;;;5033028;28;20038;-80
2020/12/25 07:54:57;;;;;;;11.52;2.50;;;1.30;96.30;;;;;;5016035;28;20025;-81
2020/12/25 07:57:23;;;;;;;9.55;2.70;;;1.30;96.30;;;;;;5019025;28;20127;-81
2020/12/25 07:59:49;;;;;;;8.88;2.58;;;1.40;96.20;;;;;;5012556;28;20052;-80
2020/12/25 08:02:15;;;;;;;8.02;2.47;;;1.30;96.00;;;;;;5027007;28;20066;-80
2020/12/25 08:04:40;;;;;;;7.57;2.08;;;1.30;96.00;;;;;;5042184;28;20039;-80
2020/12/25 08:07:08;;;;;;;5.03;2.10;;;1.40;96.00;;;;;;5026036;28;20029;-81
2020/12/25 08:09:33;;;;;;;5.85;2.85;;;1.30;95.80;;;;;;5017175;28;20503;-81
2020/12/25 08:11:59;;;;;;;8.30;2.13;;;1.20;95.80;;;;;;5038816;28;20032;-81
2020/12/25 08:14:24;;;;;;;7.10;1.77;;;1.10;95.30;;;;;;5020377;28;20132;-81
2020/12/25 08:16:50;;;;;;;7.47;2.20;;;1.20;96.20;;;;;;5024632;28;20056;-81
2020/12/25 08:19:17;;;;;;;3.85;1.52;;;1.20;96.00;;;;;;5022946;28;20048;-81
2020/12/25 08:21:43;;;;;;;8.52;2.60;;;1.30;96.10;;;;;;5012937;28;20039;-81
2020/12/25 08:24:10;;;;;;;4.22;2.05;;;1.30;95.90;;;;;;5027775;28;20028;-81
2020/12/25 08:26:36;;;;;;;9.43;2.63;;;1.30;96.00;;;;;;5013536;28;20036;-82
2020/12/25 08:29:02;;;;;;;9.95;2.17;;;1.20;95.80;;;;;;5029017;28;20081;-81
2020/12/25 08:31:37;;;;;;;6.10;2.65;;;1.30;96.10;;;;;;5028195;28;20558;-81
2020/12/25 08:34:03;;;;;;;5.60;2.28;;;1.40;95.80;;;;;;5030866;28;20059;-81
2020/12/25 08:36:31;;;;;;;3.15;1.80;;;1.30;95.70;;;;;;5053340;28;20234;-80
2020/12/25 08:38:56;;;;;;;4.78;2.45;;;1.30;95.80;;;;;;5015072;28;20045;-80
2020/12/25 08:41:26;;;;;;;5.85;2.35;;;1.20;95.80;;;;;;5047707;28;20601;-80
2020/12/25 08:43:52;;;;;;;8.75;2.58;;;1.20;96.00;;;;;;5038141;28;20052;-81
2020/12/25 08:46:21;;;;;;;6.80;2.10;;;1.20;96.00;;;;;;4453503;28;10001846;-80
2020/12/25 08:48:51;;;;;;;5.90;2.22;;;1.10;96.30;;;;;;5030793;28;20025;-81
2020/12/25 08:51:17;;;;;;;6.38;2.25;;;1.30;96.30;;;;;;4679106;28;10001202;-82
2020/12/25 08:53:54;;;;;;;9.63;2.90;;;1.40;96.60;;;;;;5012435;28;20125;-80
2020/12/25 08:56:21;;;;;;;4.60;1.75;;;1.40;96.50;;;;;;5031090;28;20037;-80
2020/12/25 08:58:56;;;;;;;6.80;2.53;;;1.60;96.70;;;;;;5015874;28;20486;-79
2020/12/25 09:01:22;;;;;;;6.88;2.58;;;1.80;96.40;;;;;;5047927;28;20036;-79
2020/12/25 09:03:48;;;;;;;5.72;1.88;;;1.90;96.50;;;;;;5004705;28;20225;-79
2020/12/25 09:06:13;;;;;;;5.65;2.33;;;1.60;96.20;;;;;;5025602;28;20063;-80
2020/12/25 09:08:39;;;;;;;3.03;2.00;;;1.50;96.00;;;;;;5016177;28;20075;-80
2020/12/25 09:11:09;;;;;;;8.30;1.88;;;1.70;96.80;;;;;;5031172;28;20032;-80
2020/12/25 09:13:35;;;;;;;14.88;2.58;;;1.60;96.10;;;;;;5010507;28;20036;-81
2020/12/25 09:16:00;;;;;;;6.20;1.80;;;1.70;96.90;;;;;;5012766;28;20381;-80
2020/12/25 09:18:26;;;;;;;8.95;2.53;;;1.80;97.00;;;;;;5021631;28;20412;-81
2020/12/25 09:20:51;;;;;;;9.32;2.60;;;2.00;96.90;;;;;;5019299;28;20082;-80
2020/12/25 09:23:18;;;;;;;9.98;2.95;;;2.20;97.10;;;;;;5007469;28;20033;-79
2020/12/25 09:25:44;;;;;;;9.50;2.08;;;2.10;96.70;;;;;;5040562;28;20032;-80
2020/12/25 09:28:09;;;;;;;10.45;1.98;;;2.30;97.10;;;;;;5024246;28;20082;-81
2020/12/25 09:30:35;;;;;;;4.85;1.80;;;2.60;97.30;;;;;;5028748;28;20029;-80
2020/12/25 09:33:00;;;;;;;10.63;2.47;;;2.70;97.20;;;;;;5017455;28;20040;-81
2020/12/25 09:35:26;;;;;;;9.20;2.90;;;2.70;97.00;;;;;;5021712;28;20090;-81
2020/12/25 09:37:51;;;;;;;7.15;2.33;;;2.70;96.60;;;;;;5025009;28;20391;-81
2020/12/25 09:40:17;;;;;;;5.90;1.95;;;2.70;97.00;;;;;;5031738;28;20548;-81
2020/12/25 09:42:42;;;;;;;8.20;2.25;;;2.70;97.20;;;;;;5019540;28;20036;-81
2020/12/25 09:45:08;;;;;;;10.88;2.38;;;2.90;97.10;;;;;;5017299;28;20037;-81
2020/12/25 09:47:33;;;;;;;6.30;2.67;;;3.00;97.20;;;;;;5037955;28;20396;-82
2020/12/25 09:49:59;;;;;;;11.65;2.35;;;3.10;96.90;;;;;;5036773;28;20032;-82
2020/12/25 09:52:24;;;;;;;9.60;2.92;;;3.10;97.00;;;;;;5032955;28;20056;-81
2020/12/25 09:54:50;;;;;;;12.73;2.45;;;3.20;97.00;;;;;;5023347;28;20521;-81
2020/12/25 09:57:15;;;;;;;13.15;2.58;;;3.20;97.00;;;;;;5025744;28;20085;-82
2020/12/25 09:59:41;;;;;;;14.20;2.63;;;3.20;96.90;;;;;;5016170;28;20025;-82
2020/12/25 10:02:06;;;;;;;10.77;2.35;;;3.20;97.20;;;;;;5030818;28;20032;-82
2020/12/25 10:04:32;;;;;;;9.55;2.67;;;3.10;97.30;;;;;;5035610;28;20071;-82
2020/12/25 10:06:57;;;;;;;6.38;2.50;;;3.30;97.00;;;;;;5017937;28;20494;-82
2020/12/25 10:09:23;;;;;;;17.58;2.65;;;3.20;97.30;;;;;;5035611;28;20128;-82
2020/12/25 10:11:51;;;;;;;7.50;1.98;;;3.20;97.50;;;;;;5040751;28;20025;-82
2020/12/25 10:14:18;;;;;;;11.13;3.03;;;3.40;97.20;;;;;;5029076;28;20487;-83
2020/12/25 10:16:43;;;;;;;15.57;3.15;;;3.40;97.20;;;;;;5013911;28;20028;-82
2020/12/25 10:19:09;;;;;;;12.68;2.08;;;3.40;97.10;;;;;;5035399;28;20053;-82
2020/12/25 10:21:34;;;;;;;10.25;1.67;;;3.40;97.20;;;;;;5028555;28;20028;-82
2020/12/25 10:24:00;;;;;;;5.78;1.30;;;3.60;96.90;;;;;;5015980;28;20474;-81
2020/12/25 10:26:25;;;;;;;10.15;1.73;;;3.70;96.80;;;;;;5010487;28;20439;-80
2020/12/25 10:28:51;;;;;;;4.15;1.60;;;3.50;96.90;;;;;;5028150;28;20032;-79
2020/12/25 10:31:16;;;;;;;10.02;1.88;;;3.60;96.70;;;;;;5034354;28;20037;-80
2020/12/25 10:33:42;;;;;;;4.82;1.38;;;3.80;96.60;;;;;;5019513;28;20253;-80
2020/12/25 10:36:07;;;;;;;6.68;1.60;;;3.60;96.60;;;;;;5039718;28;20036;-79
2020/12/25 10:38:33;;;;;;;6.43;1.60;;;3.50;96.60;;;;;;5017243;28;20036;-80
2020/12/25 10:41:00;;;;;;;4.07;1.23;;;3.80;96.80;;;;;;5034628;28;20064;-80
2020/12/25 10:43:26;;;;;;;9.82;1.40;;;3.80;96.70;;;;;;5029652;28;20048;-80
2020/12/25 10:45:51;;;;;;;4.15;1.30;;;4.00;96.80;;;;;;5016392;28;20392;-80
2020/12/25 10:48:17;;;;;;;4.55;1.20;;;4.00;97.00;;;;;;5011454;28;20073;-80
2020/12/25 10:50:42;;;;;;;7.72;1.73;;;3.90;96.80;;;;;;5011524;28;20112;-80
2020/12/25 10:53:08;;;;;;;8.60;1.38;;;4.20;97.30;;;;;;5016521;28;20027;-79
2020/12/25 10:55:33;;;;;;;6.32;1.30;;;3.80;96.30;;;;;;5030599;28;20025;-80
2020/12/25 10:57:59;;;;;;;8.48;1.90;;;4.20;97.30;;;;;;5030119;28;20048;-80
2020/12/25 11:00:24;;;;;;;4.18;1.10;;;3.80;96.40;;;;;;5041756;28;20053;-81
2020/12/25 11:02:50;;;;;;;7.05;1.38;;;4.50;98.00;;;;;;5020443;28;20116;-81
2020/12/25 11:05:16;;;;;;;5.18;1.40;;;4.90;97.50;;;;;;5019601;28;20039;-81
2020/12/25 11:07:42;;;;;;;9.52;1.25;;;4.70;95.40;;;;;;5025648;28;20364;-80
2020/12/25 11:10:08;;;;;;;4.75;1.10;;;4.60;96.90;;;;;;5026104;28;20033;-81
2020/12/25 11:12:33;;;;;;;10.57;1.15;;;4.40;97.00;;;;;;5033477;28;20111;-80
2020/12/25 11:14:59;;;;;;;9.68;1.42;;;4.20;96.40;;;;;;5034343;28;20380;-80
2020/12/25 11:17:24;;;;;;;8.93;1.95;;;4.40;97.20;;;;;;5003575;28;20032;-81
2020/12/25 11:19:55;;;;;;;10.65;1.50;;;4.60;97.00;;;;;;5021441;28;20488;-80
2020/12/25 11:22:21;;;;;;;4.30;1.30;;;4.80;96.90;;;;;;5030657;28;20032;-80
2020/12/25 11:24:47;;;;;;;7.78;1.27;;;4.40;96.60;;;;;;5011768;28;20073;-79
2020/12/25 11:27:12;;;;;;;2.40;1.08;;;4.70;97.30;;;;;;5028198;28;20032;-79
2020/12/25 11:29:38;;;;;;;6.28;1.38;;;4.80;97.50;;;;;;5027266;28;20496;-80
2020/12/25 11:32:03;;;;;;;6.75;1.25;;;4.80;97.10;;;;;;5039378;28;20103;-79
2020/12/25 11:34:29;;;;;;;7.85;1.60;;;5.10;98.00;;;;;;5032790;28;20089;-79
2020/12/25 11:36:54;;;;;;;6.00;0.60;;;4.80;95.80;;;;;;5014083;28;20028;-79
2020/12/25 11:39:20;;;;;;;6.45;1.45;;;5.00;97.50;;;;;;5030651;28;20598;-80
2020/12/25 11:41:46;;;;;;;7.30;1.38;;;4.60;95.60;;;;;;5020350;28;20040;-80
2020/12/25 11:44:11;;;;;;;7.95;2.05;;;3.80;96.30;;;;;;5061141;28;20126;-79
2020/12/25 11:46:37;;;;;;;13.30;1.42;;;3.90;97.10;;;;;;5019766;28;20442;-80
2020/12/25 11:49:06;;;;;;;10.00;1.20;;;3.90;97.30;;;;;;5017225;28;20028;-80
2020/12/25 11:51:32;;;;;;;4.65;1.00;;;3.90;97.00;;;;;;5015226;28;20036;-81
2020/12/25 11:53:57;;;;;;;8.25;1.20;;;4.80;97.30;;;;;;5017679;28;20111;-80
2020/12/25 11:56:29;;;;;;;9.18;1.52;;;5.10;96.40;;;;;;5027849;28;20539;-80
2020/12/25 11:58:54;;;;;;;5.10;1.08;;;5.40;98.00;;;;;;5040419;28;20047;-80
2020/12/25 12:01:20;;;;;;;4.07;1.33;;;4.80;96.80;;;;;;5031851;28;20467;-80
2020/12/25 12:03:46;;;;;;;11.00;1.42;;;4.90;97.30;;;;;;5033585;28;20510;-79
2020/12/25 12:06:17;;;;;;;8.18;1.60;;;5.00;97.00;;;;;;5024149;28;20518;-79
2020/12/25 12:08:43;;;;;;;6.20;1.30;;;5.40;96.70;;;;;;5042569;28;20184;-80
2020/12/25 12:11:08;;;;;;;1.25;0.95;;;5.10;96.30;;;;;;5049538;28;20119;-80
2020/12/25 12:13:34;;;;;;;5.22;1.10;;;5.50;97.60;;;;;;5030917;28;20036;-80
2020/12/25 12:15:59;;;;;;;10.85;1.45;;;5.60;96.80;;;;;;5030114;28;20035;-80
2020/12/25 12:18:25;;;;;;;8.65;1.25;;;5.70;95.60;;;;;;5023631;28;20032;-80
2020/12/25 12:20:50;;;;;;;5.28;1.70;;;5.40;96.60;;;;;;5007827;28;20029;-79
2020/12/25 12:23:16;;;;;;;9.40;1.98;;;5.60;97.80;;;;;;5025139;28;20033;-79
2020/12/25 12:25:42;;;;;;;7.65;1.42;;;6.30;97.90;;;;;;5015342;28;20032;-78
2020/12/25 12:28:07;;;;;;;4.32;0.95;;;6.20;97.10;;;;;;5032902;28;20032;-78
2020/12/25 12:30:33;;;;;;;3.03;1.05;;;6.20;96.80;;;;;;5031370;28;20380;-79
2020/12/25 12:32:58;;;;;;;11.85;1.10;;;5.90;96.20;;;;;;5009631;28;20133;-78
2020/12/25 12:35:24;;;;;;;4.75;1.38;;;6.30;98.00;;;;;;5018262;28;20029;-79
2020/12/25 12:37:50;;;;;;;12.10;1.48;;;6.30;96.50;;;;;;5019570;28;20031;-79
2020/12/25 12:40:15;;;;;;;3.40;0.73;;;5.40;96.00;;;;;;5048293;28;20032;-78
2020/12/25 12:42:41;;;;;;;9.57;1.20;;;6.10;97.10;;;;;;5040226;28;20392;-79
2020/12/25 12:45:08;;;;;;;6.30;1.23;;;5.90;95.90;;;;;;5009754;28;20112;-79
2020/12/25 12:47:34;;;;;;;5.78;1.00;;;5.60;96.70;;;;;;5010797;28;20036;-79
2020/12/25 12:50:00;;;;;;;8.82;1.73;;;5.40;96.60;;;;;;5032592;28;20036;-78